createdAt,value
2023-03-04T00:01:06.740Z,3.65
2023-03-04T00:03:36.910Z,3.64
2023-03-04T00:06:04.580Z,3.66
2023-03-04T00:08:36.297Z,3.70
2023-03-04T00:11:03.336Z,3.74
2023-03-04T00:13:31.035Z,3.79
2023-03-04T00:15:58.064Z,3.81
2023-03-04T00:18:25.793Z,3.83
2023-03-04T00:20:53.008Z,3.84
2023-03-04T00:23:20.031Z,3.87
2023-03-04T00:25:50.198Z,3.89
2023-03-04T00:28:18.689Z,3.89
2023-03-04T00:30:46.393Z,3.89
2023-03-04T00:33:13.237Z,3.90
2023-03-04T00:35:40.906Z,3.89
2023-03-04T00:38:08.947Z,3.88
2023-03-04T00:40:36.709Z,3.87
2023-03-04T00:43:05.236Z,3.86
2023-03-04T00:45:33.529Z,3.85
2023-03-04T00:48:06.216Z,3.84
2023-03-04T00:50:35.574Z,3.82
2023-03-04T00:53:02.870Z,3.80
2023-03-04T00:55:31.962Z,3.76
2023-03-04T00:57:59.149Z,3.73
2023-03-04T01:00:26.296Z,3.69
2023-03-04T01:02:54.512Z,3.66
2023-03-04T01:05:22.776Z,3.62
2023-03-04T01:07:50.585Z,3.58
2023-03-04T01:10:27.890Z,3.54
2023-03-04T01:12:55.089Z,3.52
2023-03-04T01:15:24.141Z,3.49
2023-03-04T01:17:54.483Z,3.48
2023-03-04T01:20:21.793Z,3.44
2023-03-04T01:22:48.720Z,3.40
2023-03-04T01:25:15.652Z,3.35
2023-03-04T01:27:43.559Z,3.29
2023-03-04T01:30:14.302Z,3.25
2023-03-04T01:32:42.870Z,3.19
2023-03-04T01:35:09.708Z,3.14
2023-03-04T01:37:36.547Z,3.09
2023-03-04T01:40:05.499Z,3.04
2023-03-04T01:42:33.780Z,2.97
2023-03-04T01:45:01.132Z,2.93
2023-03-04T01:47:29.557Z,2.89
2023-03-04T01:49:56.772Z,2.87
2023-03-04T01:52:25.374Z,2.86
2023-03-04T01:54:53.892Z,2.83
2023-03-04T01:57:22.569Z,2.79
2023-03-04T02:00:21.740Z,2.74
2023-03-04T02:02:50.650Z,2.66
2023-03-04T02:05:18.020Z,2.57
2023-03-04T02:07:44.797Z,2.48
2023-03-04T02:10:11.638Z,2.43
2023-03-04T02:12:41.244Z,2.37
2023-03-04T02:15:08.543Z,2.33
2023-03-04T02:17:41.746Z,2.30
2023-03-04T02:20:17.968Z,2.30
2023-03-04T02:22:52.214Z,2.30
2023-03-04T02:25:22.674Z,2.30
2023-03-04T02:27:49.643Z,2.30
2023-03-04T02:30:20.404Z,2.28
2023-03-04T02:32:47.611Z,2.25
2023-03-04T02:35:17.985Z,2.21
2023-03-04T02:37:45.385Z,2.15
2023-03-04T02:40:21.720Z,2.10
2023-03-04T02:42:48.712Z,2.04
2023-03-04T02:45:47.040Z,2.00
2023-03-04T02:48:20.176Z,1.97
2023-03-04T02:50:51.663Z,1.96
2023-03-04T02:53:20.285Z,1.96
2023-03-04T02:55:48.205Z,1.98
2023-03-04T02:58:18.180Z,1.99
2023-03-04T03:00:45.352Z,1.99
2023-03-04T03:03:12.545Z,1.96
2023-03-04T03:05:39.909Z,1.90
2023-03-04T03:08:07.460Z,1.83
2023-03-04T03:10:35.550Z,1.75
2023-03-04T03:13:03.443Z,1.68
2023-03-04T03:15:33.156Z,1.60
2023-03-04T03:18:00.742Z,1.55
2023-03-04T03:20:27.510Z,1.51
2023-03-04T03:22:54.545Z,1.49
2023-03-04T03:25:21.659Z,1.49
2023-03-04T03:27:50.734Z,1.50
2023-03-04T03:30:17.860Z,1.50
2023-03-04T03:32:44.810Z,1.51
2023-03-04T03:35:11.552Z,1.49
2023-03-04T03:37:39.061Z,1.46
2023-03-04T03:40:06.427Z,1.41
2023-03-04T03:42:35.047Z,1.38
2023-03-04T03:45:03.263Z,1.35
2023-03-04T03:47:30.767Z,1.33
2023-03-04T03:49:57.507Z,1.31
2023-03-04T03:52:25.224Z,1.30
2023-03-04T03:54:51.926Z,1.30
2023-03-04T03:57:18.742Z,1.31
2023-03-04T03:59:45.755Z,1.32
2023-03-04T04:02:22.610Z,1.32
2023-03-04T04:04:52.813Z,1.31
2023-03-04T04:08:18.623Z,1.29
2023-03-04T04:10:47.581Z,1.23
2023-03-04T04:13:16.979Z,1.21
2023-03-04T04:15:56.189Z,1.17
2023-03-04T04:18:26.412Z,1.15
2023-03-04T04:20:58.297Z,1.14
2023-03-04T04:23:27.373Z,1.15
2023-03-04T04:25:56.271Z,1.17
2023-03-04T04:28:24.902Z,1.20
2023-03-04T04:30:53.811Z,1.23
2023-03-04T04:33:22.643Z,1.23
2023-03-04T04:35:50.950Z,1.22
2023-03-04T04:38:19.286Z,1.20
2023-03-04T04:40:47.886Z,1.18
2023-03-04T04:43:16.540Z,1.16
2023-03-04T04:45:45.251Z,1.15
2023-03-04T04:48:13.917Z,1.15
2023-03-04T04:50:42.200Z,1.17
2023-03-04T04:53:14.278Z,1.22
2023-03-04T04:55:42.680Z,1.28
2023-03-04T04:58:13.206Z,1.34
2023-03-04T05:00:41.402Z,1.41
2023-03-04T05:03:18.149Z,1.46
2023-03-04T05:05:47.399Z,1.50
2023-03-04T05:08:24.350Z,1.54
2023-03-04T05:10:57.149Z,1.54
2023-03-04T05:13:26.548Z,1.56
2023-03-04T05:15:56.974Z,1.58
2023-03-04T05:18:25.908Z,1.64
2023-03-04T05:21:02.107Z,1.88
2023-03-04T05:23:33.951Z,2.26
2023-03-04T05:26:03.070Z,2.70
2023-03-04T05:28:31.629Z,3.06
2023-03-04T05:31:00.454Z,3.37
2023-03-04T05:33:28.966Z,3.70
2023-03-04T05:35:57.307Z,4.10
2023-03-04T05:38:26.213Z,4.44
2023-03-04T05:40:59.388Z,4.69
2023-03-04T05:43:28.360Z,4.93
2023-03-04T05:45:59.292Z,5.28
2023-03-04T05:48:29.197Z,5.64
2023-03-04T05:50:58.159Z,6.04
2023-03-04T05:53:26.594Z,6.44
2023-03-04T05:55:55.401Z,6.78
2023-03-04T05:58:24.127Z,7.05
2023-03-04T06:00:52.434Z,7.36
2023-03-04T06:03:22.554Z,7.70
2023-03-04T06:05:50.887Z,8.10
2023-03-04T06:08:21.481Z,8.56
2023-03-04T06:10:52.478Z,9.02
2023-03-04T06:13:27.194Z,9.46
2023-03-04T06:15:58.562Z,9.77
2023-03-04T06:18:27.552Z,10.04
2023-03-04T06:21:01.230Z,10.39
2023-03-04T06:23:30.302Z,10.79
2023-03-04T06:25:59.619Z,11.11
2023-03-04T06:28:28.109Z,11.34
2023-03-04T06:30:56.783Z,11.55
2023-03-04T06:33:32.645Z,11.75
2023-03-04T06:36:01.477Z,11.92
2023-03-04T06:38:29.944Z,12.07
2023-03-04T06:41:06.529Z,12.27
2023-03-04T06:43:35.349Z,12.52
2023-03-04T06:46:09.848Z,12.73
2023-03-04T06:48:39.596Z,12.88
2023-03-04T06:51:09.467Z,13.03
2023-03-04T06:53:39.556Z,12.94
2023-03-04T06:56:16.316Z,12.45
2023-03-04T06:58:47.973Z,11.95
2023-03-04T07:01:21.420Z,11.50
2023-03-04T07:03:50.351Z,11.09
2023-03-04T07:06:21.213Z,10.70
2023-03-04T07:08:56.207Z,10.31
2023-03-04T07:11:25.483Z,10.03
2023-03-04T07:13:54.446Z,9.69
2023-03-04T07:16:24.121Z,9.28
2023-03-04T07:18:52.866Z,8.92
2023-03-04T07:21:27.192Z,8.63
2023-03-04T07:23:55.397Z,8.29
2023-03-04T07:26:24.207Z,8.02
2023-03-04T07:28:57.432Z,7.93
2023-03-04T07:31:30.260Z,8.15
2023-03-04T07:34:03.984Z,8.65
2023-03-04T07:36:33.822Z,9.21
2023-03-04T07:39:02.331Z,9.75
2023-03-04T07:41:31.798Z,10.35
2023-03-04T07:44:00.220Z,10.95
2023-03-04T07:46:28.611Z,11.47
2023-03-04T07:48:58.112Z,12.05
2023-03-04T07:51:33.155Z,12.62
2023-03-04T07:54:02.923Z,13.10
2023-03-04T07:56:33.631Z,13.64
2023-03-04T07:59:03.594Z,14.20
2023-03-04T08:01:37.259Z,14.60
2023-03-04T08:04:06.835Z,14.97
2023-03-04T08:06:36.489Z,15.30
2023-03-04T08:09:09.244Z,15.59
2023-03-04T08:11:38.349Z,15.85
2023-03-04T08:14:07.481Z,16.13
2023-03-04T08:16:36.048Z,16.27
2023-03-04T08:19:05.787Z,16.32
2023-03-04T08:21:34.105Z,16.42
2023-03-04T08:24:08.442Z,16.48
2023-03-04T08:26:42.279Z,16.41
2023-03-04T08:29:15.722Z,16.33
2023-03-04T08:31:48.670Z,16.38
2023-03-04T08:34:18.504Z,16.47
2023-03-04T08:36:52.769Z,16.67
2023-03-04T08:39:21.194Z,16.81
2023-03-04T08:41:49.652Z,16.79
2023-03-04T08:44:17.950Z,16.51
2023-03-04T08:46:46.823Z,16.31
2023-03-04T08:49:18.416Z,16.04
2023-03-04T08:51:46.602Z,15.82
2023-03-04T08:54:14.884Z,15.68
2023-03-04T08:56:45.219Z,15.58
2023-03-04T08:59:13.392Z,15.50
2023-03-04T09:01:41.754Z,15.51
2023-03-04T09:04:11.408Z,15.61
2023-03-04T09:06:44.578Z,15.68
2023-03-04T09:09:14.054Z,15.71
2023-03-04T09:11:42.250Z,15.80
2023-03-04T09:14:14.576Z,15.91
2023-03-04T09:16:42.967Z,16.03
2023-03-04T09:19:11.090Z,16.03
2023-03-04T09:21:40.852Z,15.80
2023-03-04T09:24:09.145Z,15.60
2023-03-04T09:26:37.586Z,15.70
2023-03-04T09:29:07.375Z,15.88
2023-03-04T09:31:36.177Z,16.09
2023-03-04T09:34:06.746Z,16.28
2023-03-04T09:36:34.929Z,16.32
2023-03-04T09:39:07.433Z,16.36
2023-03-04T09:41:47.562Z,16.29
2023-03-04T09:44:19.169Z,16.16
2023-03-04T09:46:47.464Z,16.00
2023-03-04T09:49:15.967Z,16.05
2023-03-04T09:51:59.723Z,16.04
2023-03-04T09:55:04.994Z,15.88
2023-03-04T09:59:12.896Z,15.86
2023-03-04T10:01:49.475Z,16.20
2023-03-04T10:04:30.860Z,16.22
2023-03-04T10:07:23.376Z,16.17
2023-03-04T10:10:00.406Z,16.18
2023-03-04T10:12:29.993Z,16.26
2023-03-04T10:15:06.999Z,16.39
2023-03-04T10:17:44.730Z,16.57
2023-03-04T10:20:29.645Z,16.63
2023-03-04T10:22:59.415Z,16.63
2023-03-04T10:25:29.044Z,16.65
2023-03-04T10:28:02.832Z,16.59
2023-03-04T10:30:30.227Z,16.74
2023-03-04T10:32:57.789Z,16.86
2023-03-04T10:35:27.401Z,16.86
2023-03-04T10:37:55.049Z,16.89
2023-03-04T10:40:25.187Z,16.71
2023-03-04T10:42:51.992Z,16.47
2023-03-04T10:45:30.261Z,16.35
2023-03-04T10:47:58.373Z,16.27
2023-03-04T10:50:27.423Z,15.92
2023-03-04T10:52:55.490Z,15.66
2023-03-04T10:55:28.599Z,15.38
2023-03-04T10:58:05.798Z,15.04
2023-03-04T11:00:34.179Z,14.80
2023-03-04T11:03:31.286Z,14.62
2023-03-04T11:06:18.427Z,14.34
2023-03-04T11:08:59.123Z,14.03
2023-03-04T11:11:38.363Z,13.89
2023-03-04T11:14:35.598Z,13.78
2023-03-04T11:17:26.530Z,13.58
2023-03-04T11:20:10.424Z,13.40
2023-03-04T11:22:39.479Z,13.32
2023-03-04T11:25:10.603Z,13.35
2023-03-04T11:27:51.065Z,13.35
2023-03-04T11:30:30.295Z,13.31
2023-03-04T11:33:04.236Z,13.19
2023-03-04T11:35:39.731Z,13.12
2023-03-04T11:38:23.154Z,13.09
2023-03-04T11:40:58.802Z,13.07
2023-03-04T11:43:45.149Z,13.01
2023-03-04T11:46:35.445Z,12.69
2023-03-04T11:49:38.724Z,12.42
2023-03-04T11:52:21.766Z,12.27
2023-03-04T11:55:27.461Z,12.18
2023-03-04T11:58:26.587Z,12.20
2023-03-04T12:01:23.416Z,12.15
2023-03-04T12:04:04.503Z,12.18
2023-03-04T12:06:56.075Z,12.18
2023-03-04T12:09:39.327Z,12.15
2023-03-04T12:12:44.173Z,12.03
2023-03-04T12:15:19.384Z,11.86
2023-03-04T12:18:06.850Z,11.75
2023-03-04T12:20:46.925Z,11.59
2023-03-04T12:23:13.813Z,11.44
2023-03-04T12:25:45.088Z,11.37
2023-03-04T12:28:31.395Z,11.30
2023-03-04T12:31:10.781Z,11.22
2023-03-04T12:34:07.455Z,11.18
2023-03-04T12:36:52.051Z,11.07
2023-03-04T12:39:27.361Z,10.92
2023-03-04T12:42:31.364Z,10.78
2023-03-04T12:45:19.708Z,10.59
2023-03-04T12:47:56.030Z,10.44
2023-03-04T12:50:49.752Z,10.39
2023-03-04T12:53:19.781Z,10.40
2023-03-04T12:55:47.097Z,10.39
2023-03-04T12:58:22.156Z,10.31
2023-03-04T13:00:55.384Z,10.19
2023-03-04T13:03:35.568Z,10.04
2023-03-04T13:06:22.201Z,9.93
2023-03-04T13:08:59.613Z,9.89
2023-03-04T13:11:38.947Z,9.84
2023-03-04T13:14:16.917Z,9.81
2023-03-04T13:16:54.001Z,9.81
2023-03-04T13:19:47.735Z,9.81
2023-03-04T13:22:38.822Z,9.76
2023-03-04T13:25:48.080Z,9.71
2023-03-04T13:28:20.118Z,9.66
2023-03-04T13:30:56.952Z,9.59
2023-03-04T13:33:24.137Z,9.52
2023-03-04T13:36:01.428Z,9.49
2023-03-04T13:38:30.398Z,9.44
2023-03-04T13:41:13.558Z,9.39
2023-03-04T13:43:45.204Z,9.37
2023-03-04T13:46:18.762Z,9.34
2023-03-04T13:48:49.550Z,9.32
2023-03-04T13:51:29.608Z,9.29
2023-03-04T13:54:02.247Z,9.27
2023-03-04T13:56:37.488Z,9.25
2023-03-04T13:59:06.477Z,9.20
2023-03-04T14:01:35.744Z,9.12
2023-03-04T14:04:35.661Z,9.07
2023-03-04T14:07:26.663Z,9.03
2023-03-04T14:10:13.568Z,8.99
2023-03-04T14:13:00.802Z,8.95
2023-03-04T14:15:30.575Z,8.91
2023-03-04T14:18:01.134Z,8.85
2023-03-04T14:20:35.102Z,8.80
2023-03-04T14:23:21.971Z,8.77
2023-03-04T14:25:48.845Z,8.74
2023-03-04T14:28:17.701Z,8.68
2023-03-04T14:30:54.983Z,8.65
2023-03-04T14:33:28.136Z,8.58
2023-03-04T14:36:00.438Z,8.50
2023-03-04T14:38:34.744Z,8.42
2023-03-04T14:41:24.792Z,8.37
2023-03-04T14:43:57.564Z,8.30
2023-03-04T14:46:25.594Z,8.24
2023-03-04T14:48:56.286Z,8.18
2023-03-04T14:51:50.677Z,8.12
2023-03-04T14:54:41.057Z,8.08
2023-03-04T14:57:23.254Z,8.05
2023-03-04T14:59:51.618Z,8.02
2023-03-04T15:02:20.356Z,7.99
2023-03-04T15:04:48.286Z,7.96
2023-03-04T15:07:20.067Z,7.94
2023-03-04T15:09:50.437Z,7.92
2023-03-04T15:12:24.174Z,7.87
2023-03-04T15:14:54.098Z,7.82
2023-03-04T15:17:39.318Z,7.78
2023-03-04T15:20:07.526Z,7.71
2023-03-04T15:22:39.600Z,7.63
2023-03-04T15:25:08.611Z,7.57
2023-03-04T15:27:36.650Z,7.49
2023-03-04T15:30:09.615Z,7.43
2023-03-04T15:32:39.654Z,7.36
2023-03-04T15:35:09.389Z,7.31
2023-03-04T15:37:38.993Z,7.24
2023-03-04T15:40:16.716Z,7.18
2023-03-04T15:42:43.717Z,7.10
2023-03-04T15:45:24.048Z,7.03
2023-03-04T15:47:54.092Z,6.97
2023-03-04T15:50:22.540Z,6.90
2023-03-04T15:53:04.639Z,6.85
2023-03-04T15:55:31.960Z,6.79
2023-03-04T15:58:01.097Z,6.73
2023-03-04T16:00:28.332Z,6.67
2023-03-04T16:02:55.864Z,6.62
2023-03-04T16:05:25.884Z,6.57
2023-03-04T16:07:58.384Z,6.50
2023-03-04T16:10:31.686Z,6.45
2023-03-04T16:12:59.049Z,6.39
2023-03-04T16:15:29.387Z,6.35
2023-03-04T16:17:57.395Z,6.30
2023-03-04T16:20:28.158Z,6.26
2023-03-04T16:25:19.139Z,6.21
2023-03-04T16:27:51.112Z,6.15
2023-03-04T16:30:24.725Z,6.13
2023-03-04T16:33:07.313Z,6.09
2023-03-04T16:35:39.466Z,6.06
2023-03-04T16:38:33.418Z,6.02
2023-03-04T16:41:14.719Z,5.98
2023-03-04T16:43:44.658Z,5.93
2023-03-04T16:46:13.136Z,5.90
2023-03-04T16:48:42.021Z,5.87
2023-03-04T16:51:20.970Z,5.84
2023-03-04T16:53:55.112Z,5.80
2023-03-04T16:56:24.003Z,5.76
2023-03-04T16:58:54.319Z,5.72
2023-03-04T17:01:27.903Z,5.68
2023-03-04T17:03:56.808Z,5.64
2023-03-04T17:06:30.483Z,5.60
2023-03-04T17:09:24.406Z,5.55
2023-03-04T17:11:59.794Z,5.51
2023-03-04T17:14:29.512Z,5.48
2023-03-04T17:16:58.465Z,5.45
2023-03-04T17:19:27.752Z,5.41
2023-03-04T17:21:58.057Z,5.38
2023-03-04T17:24:26.631Z,5.35
2023-03-04T17:26:57.975Z,5.32
2023-03-04T17:29:29.144Z,5.27
2023-03-04T17:32:00.799Z,5.23
2023-03-04T17:34:32.217Z,5.19
2023-03-04T17:37:02.355Z,5.15
2023-03-04T17:39:32.467Z,5.12
2023-03-04T17:42:03.002Z,5.10
2023-03-04T17:44:38.053Z,5.08
2023-03-04T17:47:10.787Z,5.06
2023-03-04T17:49:43.625Z,5.04
2023-03-04T17:52:15.314Z,5.01
2023-03-04T17:54:48.364Z,4.99
2023-03-04T17:57:22.078Z,4.97
2023-03-04T17:59:56.581Z,4.96
2023-03-04T18:02:29.457Z,4.95
2023-03-04T18:05:08.890Z,4.93
2023-03-04T18:07:42.885Z,4.92
2023-03-04T18:10:25.725Z,4.92
2023-03-04T18:12:58.064Z,4.89
2023-03-04T18:15:33.191Z,4.87
2023-03-04T18:18:06.398Z,4.86
2023-03-04T18:20:43.883Z,4.82
2023-03-04T18:23:21.506Z,4.78
2023-03-04T18:25:51.345Z,4.75
2023-03-04T18:28:27.308Z,4.71
2023-03-04T18:31:00.562Z,4.69
2023-03-04T18:33:39.259Z,4.65
2023-03-04T18:36:09.850Z,4.60
2023-03-04T18:38:46.399Z,4.57
2023-03-04T18:41:20.129Z,4.53
2023-03-04T18:43:59.421Z,4.50
2023-03-04T18:46:38.909Z,4.46
2023-03-04T18:49:16.813Z,4.43
2023-03-04T18:51:53.946Z,4.39
2023-03-04T18:54:30.386Z,4.35
2023-03-04T18:57:05.797Z,4.31
2023-03-04T18:59:43.761Z,4.29
2023-03-04T19:02:47.129Z,4.26
2023-03-04T19:05:27.536Z,4.24
2023-03-04T19:08:02.280Z,4.23
2023-03-04T19:10:37.509Z,4.23
2023-03-04T19:13:17.904Z,4.21
2023-03-04T19:16:05.944Z,4.21
2023-03-04T19:18:38.849Z,4.19
2023-03-04T19:21:10.582Z,4.16
2023-03-04T19:23:50.446Z,4.13
2023-03-04T19:33:45.618Z,3.93
2023-03-04T19:36:28.533Z,3.89
2023-03-04T19:39:04.798Z,3.85
2023-03-04T19:41:38.367Z,3.81
2023-03-04T19:44:08.295Z,3.78
2023-03-04T19:46:40.776Z,3.75
2023-03-04T19:49:12.176Z,3.73
2023-03-04T19:51:45.205Z,3.72
2023-03-04T19:54:16.311Z,3.72
2023-03-04T19:56:48.526Z,3.70
2023-03-04T19:59:17.154Z,3.68
2023-03-04T20:01:55.763Z,3.63
2023-03-04T20:04:24.388Z,3.57
2023-03-04T20:06:56.305Z,3.53
2023-03-04T20:09:36.383Z,3.50
2023-03-04T20:12:05.380Z,3.48
2023-03-04T20:14:37.802Z,3.46
2023-03-04T20:17:08.205Z,3.44
2023-03-04T20:19:41.678Z,3.43
2023-03-04T20:22:13.986Z,3.42
2023-03-04T20:24:42.805Z,3.39
2023-03-04T20:27:19.178Z,3.36
2023-03-04T20:29:50.338Z,3.33
2023-03-04T20:32:18.701Z,3.29
2023-03-04T20:34:54.134Z,3.26
2023-03-04T20:37:26.312Z,3.25
2023-03-04T20:39:58.349Z,3.24
2023-03-04T20:42:27.584Z,3.23
2023-03-04T20:45:00.102Z,3.22
2023-03-04T20:47:29.626Z,3.22
2023-03-04T20:49:59.054Z,3.21
2023-03-04T20:52:27.597Z,3.19
2023-03-04T20:54:56.587Z,3.16
2023-03-04T20:57:24.755Z,3.11
2023-03-04T20:59:58.048Z,3.07
2023-03-04T21:02:31.162Z,3.05
2023-03-04T21:05:01.572Z,3.03
2023-03-04T21:07:30.966Z,3.03
2023-03-04T21:10:04.982Z,3.03
2023-03-04T21:12:33.736Z,3.03
2023-03-04T21:15:09.648Z,3.03
2023-03-04T21:17:40.471Z,3.01
2023-03-04T21:20:10.719Z,2.98
2023-03-04T21:22:40.997Z,2.95
2023-03-04T21:25:12.438Z,2.91
2023-03-04T21:27:43.367Z,2.88
2023-03-04T21:30:16.643Z,2.86
2023-03-04T21:32:50.484Z,2.85
2023-03-04T21:35:25.118Z,2.85
2023-03-04T21:38:22.031Z,2.85
2023-03-04T21:43:33.667Z,2.88
2023-03-04T21:46:01.980Z,2.89
2023-03-04T21:48:36.462Z,2.90
2023-03-04T21:51:08.295Z,2.89
2023-03-04T21:53:37.540Z,2.88
2023-03-04T21:56:05.788Z,2.86
2023-03-04T21:58:35.485Z,2.86
2023-03-04T22:01:17.176Z,2.87
2023-03-04T22:03:51.637Z,2.90
2023-03-04T22:06:24.537Z,2.95
2023-03-04T22:08:56.085Z,2.97
2023-03-04T22:11:24.853Z,2.99
2023-03-04T22:13:54.261Z,2.99
2023-03-04T22:16:22.753Z,2.98
2023-03-04T22:18:51.384Z,2.98
2023-03-04T22:21:20.202Z,2.97
2023-03-04T22:23:49.569Z,2.96
2023-03-04T22:26:30.193Z,2.97
2023-03-04T22:29:01.529Z,2.98
2023-03-04T22:31:32.034Z,3.00
2023-03-04T22:34:16.598Z,3.02
2023-03-04T22:36:46.776Z,3.03
2023-03-04T22:39:16.305Z,3.03
2023-03-04T22:41:46.018Z,3.03
2023-03-04T22:44:14.436Z,3.03
2023-03-04T22:46:43.783Z,3.01
2023-03-04T22:49:12.515Z,2.97
2023-03-04T22:51:42.023Z,2.96
2023-03-04T22:54:17.337Z,2.98
2023-03-04T22:56:45.963Z,3.00
2023-03-04T22:59:14.140Z,3.01
2023-03-04T23:01:42.918Z,3.04
2023-03-04T23:04:11.855Z,3.06
2023-03-04T23:06:40.494Z,3.05
2023-03-04T23:09:13.131Z,3.06
2023-03-04T23:11:42.579Z,3.05
2023-03-04T23:14:11.985Z,3.05
2023-03-04T23:16:44.631Z,3.07
2023-03-04T23:19:24.166Z,3.09
2023-03-04T23:21:57.380Z,3.11
2023-03-04T23:24:26.713Z,3.14
2023-03-04T23:26:54.899Z,3.17
2023-03-04T23:29:23.245Z,3.20
2023-03-04T23:31:51.839Z,3.22
2023-03-04T23:34:20.366Z,3.24
2023-03-04T23:36:49.115Z,3.25
2023-03-04T23:39:17.511Z,3.26
2023-03-04T23:43:23.069Z,3.32
2023-03-04T23:45:54.340Z,3.35
2023-03-04T23:48:22.591Z,3.38
2023-03-04T23:50:51.368Z,3.41
2023-03-04T23:53:20.496Z,3.43
2023-03-04T23:55:50.345Z,3.45
2023-03-04T23:58:17.840Z,3.48
